Time;durP1;ratioP1;P1;durP2;ratioP2;P2;SDS_P1;SDS_P2;PMS_P1;PMS_P2;Temp;Humidity;BMP_temperature;BMP_pressure;BME280_temperature;BME280_humidity;BME280_pressure;Samples;Min_cycle;Max_cycle;Signal;HPM_P1;HPM_P2
2023/11/01 00:01:52;;;;;;;8.10;7.30;;;;;;;10.13;100.00;98155.65;109651;1249;59375;-70
2023/11/01 00:04:19;;;;;;;9.10;7.50;;;;;;;10.14;100.00;98160.58;109534;1249;58961;-71
2023/11/01 00:06:45;;;;;;;8.20;7.50;;;;;;;10.13;100.00;98163.10;109375;1249;59152;-72
2023/11/01 00:09:12;;;;;;;7.10;6.40;;;;;;;10.12;100.00;98165.81;109689;1250;66006;-71
2023/11/01 00:11:38;;;;;;;7.50;6.80;;;;;;;10.12;100.00;98163.02;109729;1250;58988;-71
2023/11/01 00:14:05;;;;;;;8.80;7.70;;;;;;;10.12;100.00;98162.13;109705;1250;59059;-71
2023/11/01 00:16:31;;;;;;;7.80;7.00;;;;;;;10.11;100.00;98170.48;109676;1250;59000;-70
2023/11/01 00:18:58;;;;;;;9.50;7.40;;;;;;;10.12;100.00;98177.23;109685;1250;58926;-71
2023/11/01 00:21:24;;;;;;;7.90;7.10;;;;;;;10.11;100.00;98177.27;109583;1249;66078;-72
2023/11/01 00:23:51;;;;;;;7.30;6.70;;;;;;;10.11;100.00;98178.71;109686;1249;58972;-70
2023/11/01 00:26:17;;;;;;;7.20;6.50;;;;;;;10.10;100.00;98179.49;109675;1250;59102;-70
2023/11/01 00:28:44;;;;;;;7.00;6.40;;;;;;;10.09;100.00;98183.10;109540;1251;59209;-70
2023/11/01 00:31:10;;;;;;;9.50;7.00;;;;;;;10.08;100.00;98187.23;109738;1249;59113;-71
2023/11/01 00:33:37;;;;;;;7.80;7.10;;;;;;;10.08;100.00;98189.39;109645;1250;59287;-70
2023/11/01 00:36:04;;;;;;;7.30;6.60;;;;;;;10.07;100.00;98190.50;109726;1250;59006;-70
2023/11/01 00:38:35;;;;;;;7.80;7.10;;;;;;;10.07;100.00;98196.88;109706;1249;64037;-70
2023/11/01 00:41:03;;;;;;;7.30;6.60;;;;;;;10.07;100.00;98200.83;109664;1250;58978;-70
2023/11/01 00:43:30;;;;;;;8.10;7.40;;;;;;;10.07;100.00;98200.33;109378;1250;59203;-71
2023/11/01 00:45:57;;;;;;;7.40;6.80;;;;;;;10.07;100.00;98201.56;109596;1250;67424;-70
2023/11/01 00:48:23;;;;;;;7.50;6.70;;;;;;;10.06;100.00;98201.95;109724;1250;61280;-70
2023/11/01 00:50:50;;;;;;;7.50;6.90;;;;;;;10.06;100.00;98203.18;109487;1250;64081;-70
2023/11/01 00:53:16;;;;;;;6.90;6.30;;;;;;;10.06;100.00;98199.14;109661;1251;58965;-69
2023/11/01 00:55:43;;;;;;;7.10;6.40;;;;;;;10.06;100.00;98202.89;109719;1250;59877;-69
2023/11/01 00:58:09;;;;;;;7.20;6.60;;;;;;;10.05;100.00;98206.48;109555;1249;58964;-69
2023/11/01 01:00:36;;;;;;;10.40;7.10;;;;;;;10.05;100.00;98210.73;109707;1250;60102;-70
2023/11/01 01:03:03;;;;;;;10.20;7.00;;;;;;;10.05;100.00;98213.25;109681;1250;58983;-69
2023/11/01 01:05:29;;;;;;;7.70;6.90;;;;;;;10.04;100.00;98212.04;109536;1250;58943;-70
2023/11/01 01:07:56;;;;;;;6.70;6.10;;;;;;;10.05;100.00;98213.96;109649;1250;58889;-70
2023/11/01 01:10:23;;;;;;;7.50;6.90;;;;;;;10.05;100.00;98212.02;109692;1250;66123;-70
2023/11/01 01:12:49;;;;;;;7.00;6.30;;;;;;;10.04;100.00;98215.93;109704;1250;60084;-70
2023/11/01 01:15:16;;;;;;;7.00;6.40;;;;;;;10.05;100.00;98214.87;109635;1250;65025;-70
2023/11/01 01:17:42;;;;;;;6.70;6.00;;;;;;;10.05;100.00;98215.73;109366;1249;59032;-70
2023/11/01 01:20:09;;;;;;;7.10;6.50;;;;;;;10.06;100.00;98217.08;109771;1249;58928;-70
2023/11/01 01:22:36;;;;;;;7.00;6.10;;;;;;;10.06;100.00;98216.14;109670;1249;66725;-70
2023/11/01 01:25:03;;;;;;;6.10;5.60;;;;;;;10.06;100.00;98215.65;109677;1249;59826;-70
2023/11/01 01:27:29;;;;;;;7.50;6.70;;;;;;;10.05;100.00;98216.25;109412;1250;71574;-71
2023/11/01 01:29:55;;;;;;;7.40;6.50;;;;;;;10.05;100.00;98217.63;109703;1249;58962;-71
2023/11/01 01:32:22;;;;;;;7.10;6.60;;;;;;;10.05;100.00;98222.66;109713;1252;59093;-71
2023/11/01 01:34:48;;;;;;;7.10;6.50;;;;;;;10.05;100.00;98229.58;109681;1251;59047;-71
2023/11/01 01:37:15;;;;;;;7.90;7.00;;;;;;;10.04;100.00;98232.99;109693;1249;59045;-71
2023/11/01 01:39:41;;;;;;;7.60;6.80;;;;;;;10.03;100.00;98233.77;109332;1251;59381;-71
2023/11/01 01:42:08;;;;;;;6.10;5.60;;;;;;;10.03;100.00;98234.13;109664;1249;58951;-71
2023/11/01 01:44:34;;;;;;;7.60;6.80;;;;;;;10.04;100.00;98235.85;109708;1250;59162;-71
2023/11/01 01:47:01;;;;;;;6.80;6.20;;;;;;;10.04;100.00;98237.81;109656;1250;58910;-71
2023/11/01 01:49:27;;;;;;;6.50;6.00;;;;;;;10.04;100.00;98239.36;109695;1250;59046;-71
2023/11/01 01:51:54;;;;;;;6.70;5.90;;;;;;;10.05;100.00;98239.45;109640;1250;58962;-70
2023/11/01 01:54:20;;;;;;;6.70;6.00;;;;;;;10.06;100.00;98237.14;109492;1249;59014;-71
2023/11/01 01:56:47;;;;;;;6.30;5.60;;;;;;;10.06;100.00;98239.46;109654;1249;59058;-71
2023/11/01 01:59:13;;;;;;;7.10;6.50;;;;;;;10.05;100.00;98241.96;109686;1249;59056;-71
2023/11/01 02:01:41;;;;;;;6.90;6.40;;;;;;;10.05;100.00;98235.08;109642;1251;58998;-71
2023/11/01 02:04:08;;;;;;;7.70;6.80;;;;;;;10.04;100.00;98235.13;109672;1250;64905;-71
2023/11/01 02:06:35;;;;;;;6.60;6.10;;;;;;;10.04;100.00;98232.85;109689;1250;58961;-70
2023/11/01 02:09:05;;;;;;;6.30;5.70;;;;;;;10.03;100.00;98231.82;109683;1250;59151;-71
2023/11/01 02:11:32;;;;;;;6.20;5.70;;;;;;;10.04;100.00;98229.15;109651;1250;76193;-71
2023/11/01 02:13:58;;;;;;;6.00;5.50;;;;;;;10.03;100.00;98228.13;109719;1250;60106;-70
2023/11/01 02:16:25;;;;;;;6.70;5.80;;;;;;;10.03;100.00;98236.28;109666;1249;59026;-71
2023/11/01 02:18:51;;;;;;;6.80;6.30;;;;;;;10.03;100.00;98233.82;109696;1249;59024;-71
2023/11/01 02:21:18;;;;;;;6.20;5.60;;;;;;;10.01;100.00;98237.66;109729;1250;59353;-71
2023/11/01 02:23:44;;;;;;;6.10;5.60;;;;;;;10.01;100.00;98239.30;109699;1250;59385;-71
2023/11/01 02:26:11;;;;;;;6.00;5.50;;;;;;;10.01;100.00;98240.70;109732;1251;60094;-71
2023/11/01 02:28:37;;;;;;;7.00;6.10;;;;;;;10.01;100.00;98238.91;109700;1249;59104;-71
2023/11/01 02:31:04;;;;;;;7.50;6.00;;;;;;;10.01;100.00;98239.27;109687;1250;59015;-71
2023/11/01 02:33:31;;;;;;;6.40;5.90;;;;;;;10.01;100.00;98237.33;109702;1250;58961;-71
2023/11/01 02:35:57;;;;;;;6.90;6.30;;;;;;;10.00;100.00;98233.64;109654;1250;59290;-71
2023/11/01 02:38:24;;;;;;;7.20;6.60;;;;;;;10.01;100.00;98237.00;109723;1250;59038;-69
2023/11/01 02:40:50;;;;;;;6.50;5.80;;;;;;;10.00;100.00;98239.34;109527;1250;59087;-70
2023/11/01 02:43:17;;;;;;;6.30;5.80;;;;;;;10.00;100.00;98241.11;109674;1250;59186;-70
2023/11/01 02:45:45;;;;;;;6.00;5.60;;;;;;;10.00;100.00;98242.95;109443;1249;59217;-70
2023/11/01 02:48:12;;;;;;;6.30;5.80;;;;;;;9.99;100.00;98249.17;109685;1250;66041;-70
2023/11/01 02:50:38;;;;;;;5.70;5.30;;;;;;;10.00;100.00;98248.81;109669;1249;59024;-70
2023/11/01 02:53:05;;;;;;;5.80;5.30;;;;;;;9.98;100.00;98251.02;109673;1250;64477;-69
2023/11/01 02:55:31;;;;;;;5.60;5.20;;;;;;;9.98;100.00;98253.71;109673;1249;58956;-70
2023/11/01 02:57:58;;;;;;;6.30;5.70;;;;;;;9.98;100.00;98254.59;109675;1249;59416;-70
2023/11/01 03:00:50;;;;;;;5.60;5.20;;;;;;;9.98;100.00;98255.45;109702;1250;66019;-70
2023/11/01 03:03:17;;;;;;;6.20;5.50;;;;;;;9.98;100.00;98263.45;109635;1250;60130;-69
2023/11/01 03:05:43;;;;;;;5.70;5.30;;;;;;;9.98;100.00;98262.38;109667;1250;64042;-70
2023/11/01 03:08:10;;;;;;;5.80;5.30;;;;;;;9.98;100.00;98265.41;109735;1249;58930;-70
2023/11/01 03:10:36;;;;;;;5.40;5.00;;;;;;;9.98;100.00;98267.39;109519;1249;58952;-70
2023/11/01 03:13:03;;;;;;;5.40;4.90;;;;;;;9.98;100.00;98269.86;109698;1250;59703;-70
2023/11/01 03:15:29;;;;;;;5.50;4.80;;;;;;;9.98;100.00;98269.88;109729;1250;58933;-70
2023/11/01 03:17:57;;;;;;;5.10;4.80;;;;;;;9.98;100.00;98269.68;109638;1250;59057;-71
2023/11/01 03:20:23;;;;;;;5.40;4.90;;;;;;;9.98;100.00;98267.92;109648;1250;59150;-70
2023/11/01 03:22:49;;;;;;;5.40;5.00;;;;;;;9.98;100.00;98269.51;109654;1250;59209;-70
2023/11/01 03:25:16;;;;;;;6.20;5.60;;;;;;;9.99;100.00;98274.60;109694;1250;58975;-70
2023/11/01 03:27:42;;;;;;;5.80;5.30;;;;;;;9.99;100.00;98277.95;109679;1249;59025;-69
2023/11/01 03:30:09;;;;;;;5.90;5.50;;;;;;;10.00;100.00;98274.70;109701;1250;59008;-70
2023/11/01 03:32:35;;;;;;;5.80;5.20;;;;;;;10.00;100.00;98276.61;109643;1250;59237;-70
2023/11/01 03:35:02;;;;;;;5.50;5.00;;;;;;;10.00;100.00;98284.21;109681;1250;59037;-70
2023/11/01 03:37:29;;;;;;;6.00;5.40;;;;;;;10.01;100.00;98284.02;109693;1249;64817;-70
2023/11/01 03:39:55;;;;;;;6.20;5.60;;;;;;;10.00;100.00;98281.26;109663;1250;58931;-70
2023/11/01 03:42:22;;;;;;;5.80;5.30;;;;;;;9.99;100.00;98284.67;109655;1251;59066;-70
2023/11/01 03:44:49;;;;;;;5.90;5.50;;;;;;;9.99;100.00;98286.65;109675;1251;59103;-70
2023/11/01 03:47:16;;;;;;;5.60;5.10;;;;;;;9.97;100.00;98286.94;109729;1251;58956;-70
2023/11/01 03:49:42;;;;;;;5.30;4.90;;;;;;;9.97;100.00;98282.15;109502;1251;59065;-70
2023/11/01 03:52:08;;;;;;;6.00;5.50;;;;;;;9.96;100.00;98286.12;109737;1250;58994;-70
2023/11/01 03:54:35;;;;;;;5.60;5.20;;;;;;;9.96;100.00;98293.78;109830;1249;59151;-70
2023/11/01 03:57:02;;;;;;;6.50;5.90;;;;;;;9.95;100.00;98291.21;109831;1250;59351;-71
2023/11/01 03:59:29;;;;;;;5.90;5.40;;;;;;;9.95;100.00;98293.88;109867;1249;58879;-70
2023/11/01 04:01:55;;;;;;;6.60;6.10;;;;;;;9.94;100.00;98292.89;109530;1251;59332;-70
2023/11/01 04:04:22;;;;;;;6.90;6.30;;;;;;;9.94;100.00;98295.61;109903;1250;58978;-71
2023/11/01 04:06:48;;;;;;;7.40;6.40;;;;;;;9.93;100.00;98297.36;109510;1253;63774;-70
2023/11/01 04:09:15;;;;;;;6.90;6.30;;;;;;;9.93;100.00;98300.44;109797;1250;58974;-67
2023/11/01 04:11:41;;;;;;;6.70;6.20;;;;;;;9.93;100.00;98300.95;109547;1250;59166;-70
2023/11/01 04:14:08;;;;;;;6.40;5.80;;;;;;;9.93;100.00;98303.27;109834;1249;58959;-70
2023/11/01 04:16:35;;;;;;;7.30;6.30;;;;;;;9.93;100.00;98302.88;109857;1250;61847;-70
2023/11/01 04:19:02;;;;;;;6.60;6.00;;;;;;;9.94;100.00;98309.24;109863;1249;64022;-70
2023/11/01 04:21:29;;;;;;;6.70;6.20;;;;;;;9.93;100.00;98308.38;109835;1250;59001;-70
2023/11/01 04:23:55;;;;;;;6.60;6.00;;;;;;;9.94;100.00;98306.75;109868;1250;59045;-71
2023/11/01 04:26:21;;;;;;;6.60;6.00;;;;;;;9.95;100.00;98300.79;109554;1251;67127;-71
2023/11/01 04:28:48;;;;;;;6.70;5.90;;;;;;;9.94;100.00;98303.84;109868;1251;58986;-70
2023/11/01 04:31:17;;;;;;;6.50;5.20;;;;;;;9.95;100.00;98304.33;109869;1250;65299;-71
2023/11/01 04:33:43;;;;;;;6.40;5.80;;;;;;;9.95;100.00;98304.31;109836;1250;58994;-71
2023/11/01 04:36:10;;;;;;;6.10;5.70;;;;;;;9.95;100.00;98309.13;109838;1251;58859;-71
2023/11/01 04:38:37;;;;;;;5.60;5.20;;;;;;;9.95;100.00;98308.96;109849;1249;65727;-71
2023/11/01 04:41:09;;;;;;;6.30;5.70;;;;;;;9.94;100.00;98308.99;109832;1250;60058;-71
2023/11/01 04:43:36;;;;;;;6.40;5.90;;;;;;;9.94;100.00;98311.19;109810;1250;65438;-71
2023/11/01 04:46:04;;;;;;;6.80;5.60;;;;;;;9.94;100.00;98314.04;109830;1251;58968;-71
2023/11/01 04:48:31;;;;;;;6.00;5.50;;;;;;;9.93;100.00;98316.77;109595;1250;58950;-69
2023/11/01 04:50:59;;;;;;;6.20;5.60;;;;;;;9.93;100.00;98318.38;109637;1251;65854;-71
2023/11/01 04:53:29;;;;;;;5.90;5.50;;;;;;;9.91;100.00;98317.39;109874;1250;60990;-71
2023/11/01 04:55:56;;;;;;;6.00;5.50;;;;;;;9.91;100.00;98319.38;109861;1250;62423;-70
2023/11/01 04:58:22;;;;;;;5.40;4.90;;;;;;;9.91;100.00;98322.91;109897;1250;58961;-71
2023/11/01 05:00:50;;;;;;;5.60;5.20;;;;;;;9.91;100.00;98321.67;109687;1249;59521;-69
2023/11/01 05:03:17;;;;;;;5.60;5.10;;;;;;;9.90;100.00;98320.64;109823;1250;64797;-70
2023/11/01 05:05:44;;;;;;;7.00;5.60;;;;;;;9.91;100.00;98322.05;109561;1251;60080;-70
2023/11/01 05:08:11;;;;;;;5.70;5.20;;;;;;;9.91;100.00;98321.64;109654;1250;65174;-71
2023/11/01 05:10:37;;;;;;;6.30;5.70;;;;;;;9.92;100.00;98327.44;109827;1250;58953;-70
2023/11/01 05:13:05;;;;;;;6.60;5.90;;;;;;;9.93;100.00;98330.77;109804;1251;58896;-70
2023/11/01 05:15:34;;;;;;;6.40;5.80;;;;;;;9.93;100.00;98333.10;109856;1250;66022;-71
2023/11/01 05:18:00;;;;;;;5.50;5.10;;;;;;;9.93;100.00;98334.84;109583;1251;60125;-71
2023/11/01 05:20:27;;;;;;;5.20;4.70;;;;;;;9.94;100.00;98336.53;109861;1251;65273;-70
2023/11/01 05:22:53;;;;;;;5.60;5.10;;;;;;;9.95;100.00;98338.39;109863;1250;59007;-71
2023/11/01 05:25:20;;;;;;;5.70;5.20;;;;;;;9.96;100.00;98336.91;109846;1249;58971;-71
2023/11/01 05:27:46;;;;;;;5.40;4.90;;;;;;;9.96;100.00;98337.25;109881;1251;59300;-70
2023/11/01 05:30:14;;;;;;;4.90;4.50;;;;;;;9.97;100.00;98335.73;109858;1250;59784;-71
2023/11/01 05:32:45;;;;;;;5.10;4.60;;;;;;;9.98;100.00;98340.81;109852;1250;65296;-71
2023/11/01 05:35:12;;;;;;;4.30;4.00;;;;;;;10.00;100.00;98343.71;109863;1249;58959;-70
2023/11/01 05:37:40;;;;;;;7.30;3.80;;;;;;;10.01;100.00;98354.08;109520;1250;60009;-71
2023/11/01 05:40:13;;;;;;;4.40;4.00;;;;;;;10.02;100.00;98353.51;109582;1250;65828;-70
2023/11/01 05:42:44;;;;;;;5.50;4.30;;;;;;;10.03;100.00;98356.97;109194;1251;59177;-70
2023/11/01 05:45:20;;;;;;;4.00;3.80;;;;;;;10.04;100.00;98357.80;109592;1250;64978;-70
2023/11/01 05:47:50;;;;;;;4.10;3.70;;;;;;;10.05;100.00;98353.61;109596;1249;59042;-71
2023/11/01 05:50:25;;;;;;;3.60;3.40;;;;;;;10.06;100.00;98356.21;109871;1250;58938;-71
2023/11/01 05:52:53;;;;;;;4.60;3.40;;;;;;;10.06;100.00;98359.39;109415;1249;64750;-71
2023/11/01 05:55:19;;;;;;;3.80;3.30;;;;;;;10.08;100.00;98360.33;109865;1251;58946;-71
2023/11/01 05:57:50;;;;;;;3.30;3.10;;;;;;;10.09;100.00;98368.56;109602;1250;59075;-71
2023/11/01 06:00:17;;;;;;;6.30;3.30;;;;;;;10.11;100.00;98374.30;109582;1250;59091;-71
2023/11/01 06:02:45;;;;;;;3.70;3.40;;;;;;;10.13;100.00;98375.94;109626;1251;59371;-71
2023/11/01 06:05:12;;;;;;;3.00;2.70;;;;;;;10.14;100.00;98379.74;109554;1249;66032;-71
2023/11/01 06:07:38;;;;;;;3.50;3.20;;;;;;;10.15;100.00;98385.50;109821;1251;59016;-71
2023/11/01 06:10:06;;;;;;;3.80;3.40;;;;;;;10.17;100.00;98390.74;109809;1250;59107;-71
2023/11/01 06:12:33;;;;;;;3.80;3.50;;;;;;;10.17;100.00;98393.19;109798;1249;59020;-70
2023/11/01 06:14:59;;;;;;;5.30;3.10;;;;;;;10.17;100.00;98393.55;109875;1250;59013;-70
2023/11/01 06:17:25;;;;;;;4.50;3.90;;;;;;;10.17;100.00;98398.15;109871;1250;59031;-70
2023/11/01 06:19:52;;;;;;;3.90;3.60;;;;;;;10.18;100.00;98403.93;109857;1250;59036;-70
2023/11/01 06:22:19;;;;;;;4.60;3.70;;;;;;;10.19;100.00;98405.15;109888;1249;59383;-70
2023/11/01 06:24:45;;;;;;;5.30;4.20;;;;;;;10.21;100.00;98410.67;109850;1250;59084;-70
2023/11/01 06:27:12;;;;;;;5.40;3.90;;;;;;;10.24;100.00;98409.02;109802;1249;59126;-70
2023/11/01 06:29:42;;;;;;;5.50;3.70;;;;;;;10.27;100.00;98404.89;109783;1249;66017;-70
2023/11/01 06:32:10;;;;;;;5.80;4.40;;;;;;;10.30;100.00;98407.31;109598;1251;60286;-70
2023/11/01 06:34:36;;;;;;;4.80;4.10;;;;;;;10.32;100.00;98410.73;109826;1250;64076;-71
2023/11/01 06:37:05;;;;;;;5.00;4.00;;;;;;;10.33;100.00;98414.23;109846;1249;58987;-70
2023/11/01 06:39:31;;;;;;;8.80;6.40;;;;;;;10.33;100.00;98414.92;109880;1251;58841;-71
2023/11/01 06:41:58;;;;;;;6.80;4.90;;;;;;;10.33;100.00;98418.27;109848;1251;67079;-71
2023/11/01 06:44:25;;;;;;;7.20;4.20;;;;;;;10.36;100.00;98420.38;109825;1249;59094;-70
2023/11/01 06:46:52;;;;;;;5.20;3.80;;;;;;;10.40;100.00;98421.19;109584;1251;65323;-70
2023/11/01 06:49:19;;;;;;;7.30;4.50;;;;;;;10.46;100.00;98418.56;109847;1250;59118;-70
2023/11/01 06:51:45;;;;;;;4.60;3.80;;;;;;;10.52;100.00;98418.98;109875;1249;58877;-70
2023/11/01 06:54:13;;;;;;;5.70;4.10;;;;;;;10.56;100.00;98416.89;109848;1251;64800;-70
2023/11/01 06:56:44;;;;;;;3.60;3.20;;;;;;;10.59;100.00;98415.95;109823;1253;59954;-71
2023/11/01 06:59:14;;;;;;;7.20;4.20;;;;;;;10.59;100.00;98413.13;109853;1251;64068;-72
2023/11/01 07:01:43;;;;;;;4.20;3.80;;;;;;;10.57;100.00;98416.14;109838;1250;58989;-72
2023/11/01 07:04:10;;;;;;;3.20;2.90;;;;;;;10.53;100.00;98421.00;109770;1253;58981;-71
2023/11/01 07:06:37;;;;;;;3.30;2.80;;;;;;;10.50;100.00;98422.13;109838;1250;66052;-71
2023/11/01 07:09:05;;;;;;;2.50;2.30;;;;;;;10.47;100.00;98419.34;109882;1250;59897;-71
2023/11/01 07:11:31;;;;;;;5.20;2.80;;;;;;;10.49;100.00;98420.27;109845;1251;65165;-70
2023/11/01 07:13:58;;;;;;;4.20;2.50;;;;;;;10.54;100.00;98425.02;109575;1250;59039;-70
2023/11/01 07:16:24;;;;;;;3.90;2.70;;;;;;;10.61;100.00;98422.27;109534;1249;59054;-71
2023/11/01 07:18:51;;;;;;;4.90;3.30;;;;;;;10.68;100.00;98417.63;109826;1250;66025;-71
2023/11/01 07:21:17;;;;;;;5.50;2.70;;;;;;;10.74;100.00;98422.44;109861;1250;59024;-71
2023/11/01 07:23:44;;;;;;;6.10;2.70;;;;;;;10.83;100.00;98423.04;109833;1251;62530;-72
2023/11/01 07:26:10;;;;;;;4.10;2.60;;;;;;;10.89;100.00;98426.48;109541;1251;59059;-70
2023/11/01 07:28:37;;;;;;;4.00;2.20;;;;;;;10.94;100.00;98425.86;109827;1250;59023;-69
2023/11/01 07:31:03;;;;;;;3.60;2.50;;;;;;;11.00;100.00;98425.58;109845;1249;58934;-70
2023/11/01 07:33:30;;;;;;;3.00;2.00;;;;;;;11.08;100.00;98422.51;109821;1251;58991;-70
2023/11/01 07:35:56;;;;;;;2.70;2.30;;;;;;;11.14;100.00;98428.23;109817;1251;59044;-70
2023/11/01 07:38:23;;;;;;;3.20;2.10;;;;;;;11.22;100.00;98432.64;109849;1253;59370;-71
2023/11/01 07:40:49;;;;;;;3.90;2.50;;;;;;;11.29;100.00;98431.88;109886;1250;59028;-70
2023/11/01 07:43:16;;;;;;;6.00;2.40;;;;;;;11.38;100.00;98431.73;109835;1251;66058;-71
2023/11/01 07:45:43;;;;;;;3.50;2.30;;;;;;;11.48;100.00;98430.59;109563;1251;60212;-71
2023/11/01 07:48:09;;;;;;;2.60;1.90;;;;;;;11.59;100.00;98432.30;109846;1251;59034;-70
2023/11/01 07:50:38;;;;;;;2.90;1.80;;;;;;;11.75;100.00;98432.80;109819;1251;59022;-69
2023/11/01 07:53:04;;;;;;;4.80;1.90;;;;;;;11.92;100.00;98435.77;109859;1251;59132;-71
2023/11/01 07:55:31;;;;;;;6.30;1.60;;;;;;;12.07;100.00;98434.16;109824;1250;59381;-71
2023/11/01 07:57:57;;;;;;;4.10;2.00;;;;;;;12.19;100.00;98434.59;109517;1251;59895;-71
2023/11/01 08:00:24;;;;;;;2.80;1.70;;;;;;;12.33;100.00;98432.56;109803;1249;59162;-70
2023/11/01 08:02:53;;;;;;;3.80;1.80;;;;;;;12.51;100.00;98432.86;109822;1249;58946;-70
2023/11/01 08:05:20;;;;;;;2.20;1.80;;;;;;;12.70;100.00;98435.19;109830;1250;59067;-71
2023/11/01 08:07:47;;;;;;;3.70;1.90;;;;;;;12.77;100.00;98437.84;109815;1253;67236;-71
2023/11/01 08:10:13;;;;;;;5.60;2.10;;;;;;;12.77;100.00;98441.04;109857;1250;59356;-71
2023/11/01 08:12:40;;;;;;;1.80;1.60;;;;;;;12.75;100.00;98442.38;109755;1249;59105;-71
2023/11/01 08:15:07;;;;;;;1.40;1.20;;;;;;;12.76;100.00;98446.08;109833;1249;59053;-72
2023/11/01 08:17:33;;;;;;;2.90;1.40;;;;;;;12.76;100.00;98448.08;109888;1249;59057;-71
2023/11/01 08:20:00;;;;;;;2.30;1.90;;;;;;;12.81;100.00;98449.58;109828;1250;59261;-70
2023/11/01 08:22:26;;;;;;;3.20;1.30;;;;;;;12.96;100.00;98450.77;109838;1251;58950;-70
2023/11/01 08:24:53;;;;;;;2.70;1.70;;;;;;;13.18;100.00;98447.16;109837;1251;59004;-74
2023/11/01 08:27:19;;;;;;;2.20;1.50;;;;;;;13.38;100.00;98446.89;109842;1249;58921;-72
2023/11/01 08:29:46;;;;;;;2.10;1.40;;;;;;;13.51;100.00;98450.35;109832;1253;58892;-71
2023/11/01 08:32:12;;;;;;;3.00;1.50;;;;;;;13.59;100.00;98446.23;109823;1249;59044;-71
2023/11/01 08:34:39;;;;;;;1.90;1.30;;;;;;;13.65;100.00;98443.20;109835;1251;59114;-72
2023/11/01 08:37:06;;;;;;;4.50;1.30;;;;;;;13.70;100.00;98448.71;109542;1249;64092;-71
2023/11/01 08:39:32;;;;;;;2.60;1.20;;;;;;;13.75;100.00;98445.88;109772;1251;59227;-71
2023/11/01 08:41:59;;;;;;;2.60;1.50;;;;;;;13.83;100.00;98447.67;109440;1249;59036;-71
2023/11/01 08:44:25;;;;;;;1.90;1.50;;;;;;;13.84;100.00;98450.10;109858;1251;65753;-71
2023/11/01 08:46:53;;;;;;;3.60;1.50;;;;;;;13.73;100.00;98452.33;109796;1250;59094;-72
2023/11/01 08:49:20;;;;;;;4.50;2.10;;;;;;;13.68;100.00;98454.61;109783;1251;62862;-71
2023/11/01 08:51:47;;;;;;;3.90;2.10;;;;;;;13.76;100.00;98455.48;109782;1250;59163;-71
2023/11/01 08:54:15;;;;;;;3.90;1.90;;;;;;;13.86;100.00;98461.73;109810;1251;59015;-71
2023/11/01 08:56:42;;;;;;;5.20;1.70;;;;;;;13.97;100.00;98463.40;109811;1251;64596;-70
2023/11/01 08:59:08;;;;;;;3.40;1.60;;;;;;;14.01;100.00;98466.23;109816;1251;60133;-70
2023/11/01 09:01:35;;;;;;;1.90;1.30;;;;;;;14.04;100.00;98467.05;109822;1251;59140;-70
2023/11/01 09:04:01;;;;;;;2.10;1.50;;;;;;;14.08;100.00;98467.48;109781;1251;59076;-71
2023/11/01 09:06:30;;;;;;;2.10;1.40;;;;;;;14.11;100.00;98467.48;109706;1251;59083;-70
2023/11/01 09:08:57;;;;;;;3.20;1.20;;;;;;;14.14;100.00;98468.69;109576;1251;149474;-71
2023/11/01 09:11:25;;;;;;;2.50;1.70;;;;;;;14.15;100.00;98469.10;109741;1253;60936;-71
2023/11/01 09:13:52;;;;;;;2.70;1.40;;;;;;;14.18;100.00;98469.76;109715;1251;63632;-71
2023/11/01 09:16:20;;;;;;;1.80;1.10;;;;;;;14.18;100.00;98471.00;109785;1250;58982;-71
2023/11/01 09:18:47;;;;;;;2.40;1.30;;;;;;;14.17;100.00;98468.45;109826;1251;58862;-74
2023/11/01 09:21:13;;;;;;;1.90;1.40;;;;;;;14.17;100.00;98469.16;109823;1251;66076;-72
2023/11/01 09:23:40;;;;;;;2.50;1.30;;;;;;;14.11;100.00;98464.52;109812;1251;58961;-73
2023/11/01 09:26:09;;;;;;;2.50;1.60;;;;;;;14.09;100.00;98461.98;109812;1250;59036;-74
2023/11/01 09:28:36;;;;;;;1.60;1.30;;;;;;;14.16;100.00;98461.52;109813;1251;58968;-75
2023/11/01 09:31:02;;;;;;;3.40;1.30;;;;;;;14.13;100.00;98463.42;109840;1250;59084;-73
2023/11/01 09:33:29;;;;;;;1.80;1.30;;;;;;;14.12;100.00;98463.68;109802;1249;64796;-72
2023/11/01 09:35:55;;;;;;;2.60;1.20;;;;;;;14.15;100.00;98465.52;109819;1251;58984;-73
2023/11/01 09:38:22;;;;;;;1.40;1.10;;;;;;;14.18;100.00;98468.88;109604;1250;58984;-72
2023/11/01 09:40:50;;;;;;;3.10;1.20;;;;;;;14.20;100.00;98465.81;109827;1251;59600;-72
2023/11/01 09:43:20;;;;;;;1.90;1.10;;;;;;;14.26;100.00;98462.18;109841;1251;58903;-71
2023/11/01 09:45:46;;;;;;;2.20;1.10;;;;;;;14.40;100.00;98457.79;109857;1251;75762;-74
2023/11/01 09:48:13;;;;;;;4.20;1.30;;;;;;;14.49;100.00;98461.60;109797;1249;61469;-73
2023/11/01 09:50:43;;;;;;;2.40;1.40;;;;;;;14.54;100.00;98453.78;109790;1249;64089;-72
2023/11/01 09:53:09;;;;;;;1.40;1.20;;;;;;;14.57;100.00;98456.61;109816;1249;58996;-73
2023/11/01 09:55:36;;;;;;;2.10;1.40;;;;;;;14.58;100.00;98456.64;109827;1251;58855;-73
2023/11/01 09:58:03;;;;;;;2.50;1.20;;;;;;;14.53;100.00;98459.09;109832;1250;59500;-71
2023/11/01 10:00:31;;;;;;;2.60;1.30;;;;;;;14.52;100.00;98455.27;109793;1249;58961;-71
2023/11/01 10:02:57;;;;;;;2.50;1.10;;;;;;;14.54;100.00;98451.52;109269;1249;71494;-72
2023/11/01 10:05:25;;;;;;;1.80;1.00;;;;;;;14.57;100.00;98450.99;109799;1250;58942;-72
2023/11/01 10:07:52;;;;;;;2.20;1.10;;;;;;;14.61;100.00;98451.88;109810;1250;58926;-73
2023/11/01 10:10:19;;;;;;;1.90;1.00;;;;;;;14.61;100.00;98453.04;109624;1250;66019;-73
2023/11/01 10:12:46;;;;;;;2.10;1.10;;;;;;;14.59;100.00;98452.09;109737;1249;59831;-72
2023/11/01 10:15:20;;;;;;;1.30;1.00;;;;;;;14.64;100.00;98453.45;109497;1251;64059;-73
2023/11/01 10:17:48;;;;;;;2.10;1.00;;;;;;;14.68;100.00;98452.34;109693;1251;58949;-73
2023/11/01 10:20:22;;;;;;;3.20;1.10;;;;;;;14.74;100.00;98456.58;109518;1251;58923;-72
2023/11/01 10:22:49;;;;;;;1.10;0.90;;;;;;;14.81;100.00;98454.50;109680;1250;64825;-74
2023/11/01 10:25:18;;;;;;;2.00;1.10;;;;;;;14.87;100.00;98450.78;109757;1251;60932;-73
2023/11/01 10:27:46;;;;;;;2.60;1.20;;;;;;;14.94;100.00;98449.93;109701;1250;73832;-73
2023/11/01 10:30:17;;;;;;;2.10;1.20;;;;;;;15.02;100.00;98445.22;109688;1251;59000;-73
2023/11/01 10:32:55;;;;;;;2.80;2.00;;;;;;;15.10;100.00;98444.43;109493;1249;58951;-72
2023/11/01 10:35:21;;;;;;;4.20;2.80;;;;;;;15.18;100.00;98440.52;109738;1250;67256;-72
2023/11/01 10:37:56;;;;;;;5.10;1.90;;;;;;;15.25;100.00;98445.28;109662;1251;60194;-71
2023/11/01 10:40:23;;;;;;;3.60;1.60;;;;;;;15.36;100.00;98443.26;109383;1250;65238;-72
2023/11/01 10:42:53;;;;;;;2.70;1.30;;;;;;;15.51;100.00;98439.89;109514;1250;58994;-73
2023/11/01 10:45:20;;;;;;;3.50;1.60;;;;;;;15.66;100.00;98440.19;109680;1249;59024;-73
2023/11/01 10:47:47;;;;;;;2.10;1.30;;;;;;;15.72;100.00;98444.67;109538;1251;58938;-72
2023/11/01 10:50:14;;;;;;;1.80;1.00;;;;;;;15.63;100.00;98443.22;109420;1250;61338;-72
2023/11/01 10:52:41;;;;;;;2.40;1.00;;;;;;;15.54;100.00;98440.26;109505;1250;59946;-73
2023/11/01 10:55:10;;;;;;;2.90;1.60;;;;;;;15.64;100.00;98435.27;109670;1251;58983;-73
2023/11/01 10:57:37;;;;;;;3.00;1.40;;;;;;;15.69;100.00;98433.01;109689;1251;58937;-73
2023/11/01 11:00:15;;;;;;;1.70;1.40;;;;;;;15.82;100.00;98433.67;109652;1251;64924;-73
2023/11/01 11:02:55;;;;;;;1.40;1.00;;;;;;;15.88;100.00;98434.73;109446;1250;59181;-73
2023/11/01 11:05:28;;;;;;;2.20;1.10;;;;;;;15.94;100.00;98433.08;109692;1249;64303;-73
2023/11/01 11:07:56;;;;;;;1.10;1.00;;;;;;;16.10;100.00;98429.53;109534;1249;59083;-73
2023/11/01 11:10:33;;;;;;;2.60;1.10;;;;;;;16.14;100.00;98431.65;109591;1251;58885;-72
2023/11/01 11:13:17;;;;;;;1.10;1.00;;;;;;;16.02;100.00;98430.95;109558;1251;66165;-73
2023/11/01 11:16:12;;;;;;;1.10;0.90;;;;;;;15.88;100.00;98432.20;109576;1251;60095;-73
2023/11/01 11:18:44;;;;;;;1.10;0.70;;;;;;;15.71;100.00;98435.98;109494;1251;62557;-73
2023/11/01 11:21:44;;;;;;;2.30;0.80;;;;;;;15.58;100.00;98436.00;109530;1251;59038;-74